Date,TemperatureHighF,TemperatureAvgF,TemperatureLowF,DewpointHighF,DewpointAvgF,DewpointLowF,HumidityHigh,HumidityAvg,HumidityLow,PressureMaxIn,PressureMinIn,WindSpeedMaxMPH,WindSpeedAvgMPH,GustSpeedMaxMPH,PrecipitationSumIn
2013-8-1,74.0,67.1,64.1,67.7,64.0,61.6,94,90,78,30.04,29.86,1,0,6,0.45
2013-8-2,81.8,70.9,64.1,70.1,64.1,59.1,95,81,50,29.91,29.82,1,0,7,0.01
2013-8-3,80.0,70.4,61.3,66.9,61.2,55.9,91,74,49,29.90,29.81,1,0,8,0.00
2013-8-4,77.1,66.8,57.3,64.2,57.1,52.8,90,72,51,29.98,29.86,2,0,8,0.11
2013-8-5,75.7,66.6,56.2,55.7,51.8,45.2,84,62,34,30.07,29.98,4,1,12,0.00
2013-8-6,78.4,66.7,52.1,61.3,56.0,49.8,93,71,44,30.14,30.07,1,0,5,0.00
2013-8-7,76.2,69.0,63.0,66.8,62.9,58.4,92,81,69,30.16,30.06,1,0,4,0.07
2013-8-8,81.8,74.5,68.0,72.9,69.8,65.6,94,86,73,30.06,29.98,0,0,3,0.01
2013-8-9,78.8,73.8,71.2,75.3,71.6,69.4,95,93,88,29.99,29.79,1,0,5,1.59
2013-8-10,81.8,71.3,61.3,70.4,63.1,54.0,95,77,52,30.08,29.87,1,0,5,0.00
2013-8-11,77.5,66.9,53.5,65.4,58.2,51.0,93,75,51,30.15,30.02,1,0,6,0.00
2013-8-12,79.8,70.5,58.6,66.1,61.9,56.3,93,76,51,30.06,29.92,1,0,4,0.00
2013-8-13,74.7,68.8,65.2,69.1,65.1,63.0,94,88,81,29.93,29.68,2,0,7,0.50
2013-8-14,72.2,64.1,54.4,62.9,55.0,52.3,94,74,54,30.04,29.77,2,0,9,0.00
2013-8-15,74.6,64.5,52.3,61.3,54.6,49.2,90,71,49,30.15,30.04,1,0,7,0.00
2013-8-16,76.8,65.8,55.4,63.7,58.0,52.8,92,77,50,30.22,30.14,1,0,5,0.00
2013-8-17,78.2,66.2,54.4,63.9,58.0,52.4,94,77,46,30.32,30.22,1,0,6,0.00
2013-8-18,73.9,66.4,59.0,66.3,61.5,56.8,93,85,71,30.30,30.13,0,0,3,0.00
2013-8-19,78.5,69.6,60.6,68.4,63.7,58.6,94,82,65,30.13,30.02,1,0,3,0.00
2013-8-20,82.7,70.4,57.8,69.1,63.3,55.8,94,80,53,30.14,30.05,1,0,4,0.00
2013-8-21,83.8,72.4,59.8,69.5,64.5,57.8,94,78,55,30.20,30.04,1,0,5,0.00
2013-8-22,83.1,75.1,64.8,74.4,68.9,62.4,92,82,71,30.06,29.85,0,0,3,0.00
2013-8-23,76.6,71.2,64.2,68.2,60.5,53.2,90,70,50,30.17,29.89,4,1,12,0.00
2013-8-24,75.3,66.0,55.6,60.1,55.1,51.2,90,69,50,30.36,30.17,4,1,9,0.00
2013-8-25,80.6,67.7,54.0,64.7,58.6,51.7,94,75,46,30.41,30.20,1,0,5,0.00
2013-8-26,72.3,68.2,62.5,69.5,64.0,58.3,94,87,72,30.21,29.90,0,0,0,0.50
2013-8-27,81.2,73.5,68.6,71.4,68.6,66.5,94,85,68,29.93,29.84,2,0,9,0.26
2013-8-28,84.3,72.2,64.3,73.3,67.2,62.5,95,85,66,29.93,29.84,1,0,4,0.00
2013-8-29,77.8,70.9,65.9,69.0,66.5,64.0,95,86,72,30.06,29.92,1,0,6,0.00
2013-8-30,81.7,73.9,65.3,71.5,67.7,62.9,94,82,65,30.03,29.83,1,0,5,0.00
2013-8-31,83.2,75.7,70.3,75.3,71.2,68.2,93,86,76,29.84,29.75,0,0,3,0.09